createdAt,value
2023-02-15T00:00:11.394Z,4.00
2023-02-15T00:02:38.673Z,4.03
2023-02-15T00:05:05.833Z,5.03
2023-02-15T00:07:33.420Z,5.13
2023-02-15T00:10:00.487Z,4.87
2023-02-15T00:12:27.558Z,4.33
2023-02-15T00:14:54.588Z,5.05
2023-02-15T00:17:22.131Z,5.37
2023-02-15T00:19:48.713Z,4.37
2023-02-15T00:22:15.737Z,3.90
2023-02-15T00:24:42.768Z,4.30
2023-02-15T00:27:12.116Z,5.53
2023-02-15T00:29:39.536Z,4.60
2023-02-15T00:32:07.204Z,5.53
2023-02-15T00:34:34.300Z,3.77
2023-02-15T00:37:01.346Z,4.57
2023-02-15T00:39:30.721Z,3.73
2023-02-15T00:41:57.754Z,5.77
2023-02-15T00:44:24.366Z,3.23
2023-02-15T00:46:51.676Z,4.60
2023-02-15T00:49:18.281Z,4.40
2023-02-15T00:51:45.333Z,4.27
2023-02-15T00:54:11.915Z,3.20
2023-02-15T00:56:41.704Z,2.90
2023-02-15T00:59:10.047Z,2.43
2023-02-15T01:01:37.251Z,6.30
2023-02-15T01:04:04.403Z,4.37
2023-02-15T01:06:31.502Z,3.97
2023-02-15T01:08:58.687Z,3.83
2023-02-15T01:11:25.715Z,5.63
2023-02-15T01:13:55.168Z,2.73
2023-02-15T01:16:23.009Z,4.27
2023-02-15T01:18:50.425Z,3.57
2023-02-15T01:21:20.341Z,2.63
2023-02-15T01:23:47.772Z,3.30
2023-02-15T01:26:15.520Z,2.30
2023-02-15T01:28:44.599Z,3.03
2023-02-15T01:31:16.801Z,3.77
2023-02-15T01:33:46.288Z,4.33
2023-02-15T01:36:13.395Z,4.77
2023-02-15T01:38:43.349Z,1.93
2023-02-15T01:41:25.492Z,3.30
2023-02-15T01:43:56.179Z,3.33
2023-02-15T01:46:28.854Z,3.47
2023-02-15T01:49:02.508Z,1.70
2023-02-15T01:51:33.926Z,3.60
2023-02-15T01:54:08.364Z,2.70
2023-02-15T01:56:38.219Z,1.80
2023-02-15T01:59:09.880Z,2.53
2023-02-15T02:01:36.749Z,2.73
2023-02-15T02:04:19.818Z,2.03
2023-02-15T02:06:49.808Z,2.30
2023-02-15T02:09:16.963Z,1.73
2023-02-15T02:11:47.685Z,2.60
2023-02-15T02:14:14.806Z,3.13
2023-02-15T02:16:56.881Z,2.17
2023-02-15T02:19:24.678Z,2.50
2023-02-15T02:22:33.832Z,2.93
2023-02-15T02:25:51.234Z,4.20
2023-02-15T02:28:53.521Z,1.57
2023-02-15T02:31:44.281Z,1.50
2023-02-15T02:34:51.818Z,1.60
2023-02-15T02:37:55.324Z,2.63
2023-02-15T02:40:38.338Z,2.73
2023-02-15T02:43:33.123Z,2.97
2023-02-15T02:46:07.561Z,2.67
2023-02-15T02:48:34.838Z,2.80
2023-02-15T02:51:01.493Z,2.07
2023-02-15T02:53:32.133Z,1.80
2023-02-15T02:56:18.455Z,2.40
2023-02-15T02:58:58.024Z,1.57
2023-02-15T03:01:31.211Z,1.97
2023-02-15T03:04:03.629Z,2.50
2023-02-15T03:06:40.149Z,3.10
2023-02-15T03:09:18.149Z,2.47
2023-02-15T03:11:45.726Z,3.17
2023-02-15T03:14:17.627Z,1.83
2023-02-15T03:16:48.148Z,3.50
2023-02-15T03:19:24.466Z,2.67
2023-02-15T03:22:10.027Z,3.17
2023-02-15T03:24:47.490Z,1.80
2023-02-15T03:27:20.504Z,2.87
2023-02-15T03:29:58.948Z,3.37
2023-02-15T03:32:28.488Z,3.80
2023-02-15T03:34:56.034Z,1.73
2023-02-15T03:37:37.862Z,4.77
2023-02-15T03:40:32.148Z,3.30
2023-02-15T03:43:08.090Z,2.97
2023-02-15T03:45:36.956Z,3.17
2023-02-15T03:48:05.822Z,4.73
2023-02-15T03:50:54.797Z,2.50
2023-02-15T03:53:24.176Z,4.03
2023-02-15T03:55:55.094Z,3.93
2023-02-15T03:58:41.119Z,2.70
2023-02-15T04:01:56.388Z,2.63
2023-02-15T04:04:29.095Z,3.57
2023-02-15T04:06:56.169Z,3.30
2023-02-15T04:09:41.836Z,5.07
2023-02-15T04:12:08.707Z,2.50
2023-02-15T04:14:54.743Z,3.90
2023-02-15T04:17:21.832Z,2.83
2023-02-15T04:20:07.552Z,3.00
2023-02-15T04:22:53.537Z,3.07
2023-02-15T04:25:20.933Z,3.80
2023-02-15T04:27:56.716Z,4.43
2023-02-15T04:30:25.659Z,5.77
2023-02-15T04:32:52.905Z,4.50
2023-02-15T04:35:19.608Z,3.17
2023-02-15T04:37:46.645Z,3.93
2023-02-15T04:40:18.689Z,4.13
2023-02-15T04:42:48.800Z,3.33
2023-02-15T04:45:15.522Z,5.40
2023-02-15T04:47:42.861Z,3.40
2023-02-15T04:50:10.112Z,4.77
2023-02-15T04:52:37.284Z,4.60
2023-02-15T04:55:04.415Z,5.77
2023-02-15T04:57:31.484Z,6.27
2023-02-15T04:59:59.912Z,4.73
2023-02-15T05:02:27.003Z,5.83
2023-02-15T05:04:54.049Z,2.93
2023-02-15T05:07:24.128Z,5.07
2023-02-15T05:09:51.147Z,8.30
2023-02-15T05:12:18.142Z,6.47
2023-02-15T05:14:44.754Z,7.80
2023-02-15T05:17:11.797Z,6.40
2023-02-15T05:19:38.839Z,6.80
2023-02-15T05:22:05.913Z,6.93
2023-02-15T05:24:51.332Z,5.93
2023-02-15T05:27:36.744Z,7.03
2023-02-15T05:30:04.449Z,6.53
2023-02-15T05:32:31.688Z,7.17
2023-02-15T05:34:58.796Z,7.13
2023-02-15T05:37:25.852Z,5.40
2023-02-15T05:39:52.911Z,6.07
2023-02-15T05:42:19.920Z,7.80
2023-02-15T05:44:47.184Z,7.20
2023-02-15T05:47:14.216Z,7.63
2023-02-15T05:49:40.830Z,8.47
2023-02-15T05:52:07.517Z,6.83
2023-02-15T05:54:34.576Z,7.57
2023-02-15T05:57:01.650Z,6.23
2023-02-15T05:59:28.240Z,4.77
2023-02-15T06:01:55.279Z,5.60
2023-02-15T06:04:22.346Z,4.90
2023-02-15T06:06:49.391Z,6.43
2023-02-15T06:09:19.105Z,7.97
2023-02-15T06:11:46.566Z,6.57
2023-02-15T06:14:13.585Z,9.10
2023-02-15T06:16:40.627Z,6.17
2023-02-15T06:19:07.757Z,10.07
2023-02-15T06:21:34.825Z,7.37
2023-02-15T06:24:01.870Z,13.60
2023-02-15T06:26:29.290Z,8.13
2023-02-15T06:28:56.437Z,7.87
2023-02-15T06:31:23.066Z,11.13
2023-02-15T06:33:50.178Z,21.73
2023-02-15T06:36:17.259Z,12.77
2023-02-15T06:38:44.355Z,27.77
2023-02-15T06:41:10.953Z,17.00
2023-02-15T06:43:38.873Z,16.23
2023-02-15T06:46:07.155Z,10.90
2023-02-15T06:48:34.189Z,10.30
2023-02-15T06:51:01.236Z,9.13
2023-02-15T06:53:28.286Z,8.77
2023-02-15T06:56:02.255Z,10.57
2023-02-15T06:58:29.440Z,8.57
2023-02-15T07:00:56.003Z,7.80
2023-02-15T07:03:23.043Z,7.90
2023-02-15T07:05:50.184Z,9.17
2023-02-15T07:08:17.244Z,11.83
2023-02-15T07:10:46.897Z,7.93
2023-02-15T07:13:13.922Z,8.30
2023-02-15T07:15:40.528Z,8.53
2023-02-15T07:18:07.700Z,8.90
2023-02-15T07:20:37.599Z,10.27
2023-02-15T07:23:05.632Z,10.17
2023-02-15T07:25:32.324Z,9.93
2023-02-15T07:28:03.882Z,7.37
2023-02-15T07:30:31.159Z,6.37
2023-02-15T07:33:17.638Z,8.03
2023-02-15T07:35:51.650Z,7.03
2023-02-15T07:38:19.142Z,6.80
2023-02-15T07:40:46.486Z,6.13
2023-02-15T07:43:13.799Z,8.80
2023-02-15T07:45:41.281Z,6.30
2023-02-15T07:48:08.658Z,12.30
2023-02-15T07:50:35.808Z,7.13
2023-02-15T07:53:03.467Z,9.37
2023-02-15T07:55:30.613Z,7.03
2023-02-15T07:57:57.745Z,7.03
2023-02-15T08:00:25.787Z,8.73
2023-02-15T08:03:13.545Z,7.10
2023-02-15T08:05:44.851Z,6.73
2023-02-15T08:08:31.211Z,6.93
2023-02-15T08:11:33.592Z,5.77
2023-02-15T08:14:11.959Z,9.10
2023-02-15T08:16:47.412Z,6.70
2023-02-15T08:19:18.557Z,6.50
2023-02-15T08:21:48.071Z,8.30
2023-02-15T08:24:16.473Z,9.40
2023-02-15T08:26:45.810Z,11.23
2023-02-15T08:29:12.842Z,8.17
2023-02-15T08:31:42.037Z,9.93
2023-02-15T08:34:10.568Z,9.43
2023-02-15T08:36:37.166Z,12.03
2023-02-15T08:39:05.981Z,11.80
2023-02-15T08:41:35.362Z,9.30
2023-02-15T08:44:04.832Z,8.93
2023-02-15T08:46:35.259Z,10.60
2023-02-15T08:49:02.528Z,11.33
2023-02-15T08:51:32.766Z,8.50
2023-02-15T08:54:02.106Z,9.77
2023-02-15T08:56:32.608Z,12.50
2023-02-15T08:58:59.958Z,10.17
2023-02-15T09:01:30.292Z,11.37
2023-02-15T09:04:06.251Z,10.50
2023-02-15T09:06:33.942Z,10.10
2023-02-15T09:09:01.017Z,10.10
2023-02-15T09:11:29.588Z,9.97
2023-02-15T09:14:01.755Z,11.67
2023-02-15T09:16:31.505Z,11.00
2023-02-15T09:18:58.891Z,10.57
2023-02-15T09:21:26.929Z,7.73
2023-02-15T09:23:58.742Z,11.23
2023-02-15T09:26:27.227Z,10.67
2023-02-15T09:28:56.591Z,8.40
2023-02-15T09:31:26.580Z,10.07
2023-02-15T09:33:53.934Z,10.53
2023-02-15T09:36:35.220Z,10.00
2023-02-15T09:39:10.554Z,8.63
2023-02-15T09:42:16.348Z,7.50
2023-02-15T09:44:43.352Z,9.97
2023-02-15T09:47:31.514Z,10.30
2023-02-15T09:50:07.016Z,8.83
2023-02-15T09:52:52.581Z,25.60
2023-02-15T09:55:36.268Z,11.00
2023-02-15T09:58:23.903Z,8.10
2023-02-15T10:00:50.994Z,7.30
2023-02-15T10:03:35.153Z,8.80
2023-02-15T10:06:02.360Z,8.23
2023-02-15T10:09:00.579Z,17.90
2023-02-15T10:11:50.876Z,9.73
2023-02-15T10:14:20.542Z,10.27
2023-02-15T10:16:56.985Z,12.37
2023-02-15T10:19:28.574Z,9.67
2023-02-15T10:22:19.406Z,8.80
2023-02-15T10:24:53.182Z,8.77
2023-02-15T10:27:23.024Z,7.87
2023-02-15T10:29:58.898Z,6.77
2023-02-15T10:32:30.140Z,9.13
2023-02-15T10:35:21.040Z,8.03
2023-02-15T10:38:06.835Z,17.27
2023-02-15T10:40:52.244Z,24.57
2023-02-15T10:43:30.650Z,11.70
2023-02-15T10:46:25.134Z,8.67
2023-02-15T10:49:01.876Z,18.37
2023-02-15T10:51:53.958Z,11.57
2023-02-15T10:54:37.434Z,11.93
2023-02-15T10:57:31.103Z,12.77
2023-02-15T10:59:58.196Z,12.13
2023-02-15T11:02:25.236Z,8.23
2023-02-15T11:05:21.408Z,7.77
2023-02-15T11:07:50.523Z,9.67
2023-02-15T11:10:36.333Z,8.50
2023-02-15T11:13:17.332Z,11.80
2023-02-15T11:15:53.863Z,8.70
2023-02-15T11:18:24.596Z,9.83
2023-02-15T11:21:13.192Z,9.40
2023-02-15T11:23:45.791Z,15.00
2023-02-15T11:26:35.067Z,8.63
2023-02-15T11:29:49.614Z,8.77
2023-02-15T11:32:39.501Z,7.57
2023-02-15T11:35:12.523Z,9.17
2023-02-15T11:37:54.534Z,8.67
2023-02-15T11:40:31.911Z,9.60
2023-02-15T11:43:08.437Z,10.80
2023-02-15T11:45:36.128Z,9.57
2023-02-15T11:48:10.559Z,9.83
2023-02-15T11:50:37.374Z,9.70
2023-02-15T11:53:19.245Z,10.27
2023-02-15T11:55:48.202Z,11.30
2023-02-15T11:58:30.992Z,9.80
2023-02-15T12:01:16.297Z,10.13
2023-02-15T12:03:52.516Z,8.97
2023-02-15T12:06:31.146Z,13.23
2023-02-15T12:09:03.873Z,8.20
2023-02-15T12:11:38.935Z,10.70
2023-02-15T12:14:10.884Z,10.07
2023-02-15T12:16:48.123Z,10.83
2023-02-15T12:19:27.047Z,9.67
2023-02-15T12:21:54.083Z,9.83
2023-02-15T12:24:25.706Z,15.63
2023-02-15T12:27:22.923Z,9.67
2023-02-15T12:30:03.282Z,11.77
2023-02-15T12:32:35.196Z,11.37
2023-02-15T12:35:10.597Z,9.47
2023-02-15T12:37:37.724Z,11.53
2023-02-15T12:40:22.351Z,12.07
2023-02-15T12:42:49.347Z,10.10
2023-02-15T12:45:26.702Z,13.03
2023-02-15T12:48:16.676Z,12.73
2023-02-15T12:50:46.523Z,15.60
2023-02-15T12:53:32.318Z,12.33
2023-02-15T12:56:04.394Z,12.57
2023-02-15T12:58:32.862Z,10.30
2023-02-15T13:01:18.302Z,11.60
2023-02-15T13:04:00.239Z,9.57
2023-02-15T13:06:28.663Z,14.57
2023-02-15T13:08:59.644Z,15.70
2023-02-15T13:11:31.317Z,13.03
2023-02-15T13:14:01.295Z,11.13
2023-02-15T13:16:40.999Z,13.20
2023-02-15T13:19:16.283Z,10.73
2023-02-15T13:21:46.747Z,9.77
2023-02-15T13:24:26.753Z,11.50
2023-02-15T13:27:09.301Z,11.93
2023-02-15T13:29:45.543Z,10.33
2023-02-15T13:32:28.091Z,12.83
2023-02-15T13:35:01.334Z,10.90
2023-02-15T13:37:50.859Z,10.67
2023-02-15T13:40:26.651Z,11.57
2023-02-15T13:43:00.523Z,9.43
2023-02-15T13:45:32.122Z,9.77
2023-02-15T13:48:08.193Z,13.00
2023-02-15T13:50:49.711Z,13.40
2023-02-15T13:53:37.928Z,11.40
2023-02-15T13:56:18.898Z,11.77
2023-02-15T13:59:14.814Z,10.13
2023-02-15T14:01:49.028Z,12.20
2023-02-15T14:04:16.207Z,9.07
2023-02-15T14:06:59.094Z,11.40
2023-02-15T14:09:44.535Z,9.70
2023-02-15T14:12:30.723Z,10.83
2023-02-15T14:15:09.974Z,13.87
2023-02-15T14:18:00.294Z,10.97
2023-02-15T14:20:57.838Z,11.63
2023-02-15T14:23:37.036Z,10.30
2023-02-15T14:26:20.193Z,8.87
2023-02-15T14:29:11.883Z,9.80
2023-02-15T14:31:50.188Z,12.90
2023-02-15T14:34:28.628Z,8.30
2023-02-15T14:36:56.872Z,9.00
2023-02-15T14:40:12.410Z,8.43
2023-02-15T14:42:50.284Z,8.00
2023-02-15T14:45:27.333Z,9.00
2023-02-15T14:48:12.839Z,11.13
2023-02-15T14:50:43.925Z,9.50
2023-02-15T14:53:32.933Z,6.67
2023-02-15T14:56:19.176Z,9.57
2023-02-15T14:58:53.088Z,7.73
2023-02-15T15:01:28.905Z,9.00
2023-02-15T15:04:00.964Z,7.70
2023-02-15T15:06:33.233Z,10.47
2023-02-15T15:09:22.490Z,8.77
2023-02-15T15:11:51.314Z,7.93
2023-02-15T15:14:33.308Z,6.70
2023-02-15T15:17:02.050Z,7.20
2023-02-15T15:19:52.396Z,7.07
2023-02-15T15:22:27.600Z,8.00
2023-02-15T15:24:57.362Z,7.60
2023-02-15T15:27:59.672Z,7.30
2023-02-15T15:30:26.774Z,7.67
2023-02-15T15:32:56.934Z,7.33
2023-02-15T15:36:03.543Z,8.17
2023-02-15T15:39:07.967Z,9.13
2023-02-15T15:41:49.811Z,6.53
2023-02-15T15:44:43.430Z,6.30
2023-02-15T15:47:10.568Z,6.67
2023-02-15T15:49:39.001Z,8.23
2023-02-15T15:52:23.277Z,7.63
2023-02-15T15:54:54.261Z,7.83
2023-02-15T15:57:33.632Z,7.10
2023-02-15T16:00:00.777Z,8.40
2023-02-15T16:02:28.150Z,6.27
2023-02-15T16:04:55.235Z,7.63
2023-02-15T16:07:26.050Z,7.30
2023-02-15T16:10:01.623Z,7.43
2023-02-15T16:12:37.019Z,8.03
2023-02-15T16:15:17.326Z,8.23
2023-02-15T16:17:48.431Z,7.93
2023-02-15T16:20:22.763Z,8.97
2023-02-15T16:22:58.223Z,7.53
2023-02-15T16:25:27.813Z,7.97
2023-02-15T16:27:54.584Z,7.17
2023-02-15T16:30:27.002Z,6.93
2023-02-15T16:32:56.343Z,18.50
2023-02-15T16:35:24.466Z,9.33
2023-02-15T16:37:51.567Z,8.30
2023-02-15T16:40:24.313Z,11.20
2023-02-15T16:42:52.575Z,9.20
2023-02-15T16:45:21.972Z,11.97
2023-02-15T16:47:53.612Z,12.63
2023-02-15T16:50:32.725Z,8.73
2023-02-15T16:53:00.089Z,7.70
2023-02-15T16:55:32.806Z,9.30
2023-02-15T16:58:04.965Z,7.20
2023-02-15T17:00:36.668Z,8.97
2023-02-15T17:03:24.499Z,8.07
2023-02-15T17:05:56.967Z,7.97
2023-02-15T17:08:31.246Z,8.07
2023-02-15T17:11:00.800Z,9.80
2023-02-15T17:13:28.666Z,7.47
2023-02-15T17:16:01.422Z,10.80
2023-02-15T17:18:31.574Z,8.53
2023-02-15T17:21:02.978Z,10.37
2023-02-15T17:23:36.695Z,12.97
2023-02-15T17:26:19.716Z,8.80
2023-02-15T17:28:53.548Z,9.40
2023-02-15T17:31:21.865Z,7.13
2023-02-15T17:33:49.324Z,10.07
2023-02-15T17:36:23.348Z,10.57
2023-02-15T17:38:58.844Z,12.83
2023-02-15T17:41:25.394Z,10.67
2023-02-15T17:43:52.404Z,8.70
2023-02-15T17:46:22.667Z,9.50
2023-02-15T17:48:51.596Z,10.93
2023-02-15T17:51:20.342Z,9.07
2023-02-15T17:54:06.473Z,8.50
2023-02-15T17:56:33.811Z,9.53
2023-02-15T17:59:00.510Z,8.63
2023-02-15T18:01:46.371Z,8.33
2023-02-15T18:04:34.040Z,10.20
2023-02-15T18:07:19.823Z,10.17
2023-02-15T18:10:05.759Z,10.53
2023-02-15T18:12:36.522Z,9.87
2023-02-15T18:15:03.602Z,10.60
2023-02-15T18:17:34.232Z,11.03
2023-02-15T18:20:06.454Z,12.00
2023-02-15T18:22:33.840Z,10.07
2023-02-15T18:25:00.465Z,10.93
2023-02-15T18:27:27.489Z,11.47
2023-02-15T18:29:54.547Z,14.47
2023-02-15T18:32:32.400Z,19.13
2023-02-15T18:34:59.429Z,12.33
2023-02-15T18:37:30.930Z,12.33
2023-02-15T18:39:57.955Z,10.80
2023-02-15T18:42:27.398Z,11.37
2023-02-15T18:44:56.938Z,12.57
2023-02-15T18:47:24.430Z,15.83
2023-02-15T18:49:51.636Z,13.27
2023-02-15T18:52:21.710Z,11.70
2023-02-15T18:54:53.362Z,12.67
2023-02-15T18:57:20.521Z,12.83
2023-02-15T18:59:47.624Z,15.03
2023-02-15T19:02:18.661Z,11.00
2023-02-15T19:04:46.603Z,11.70
2023-02-15T19:07:24.120Z,14.90
2023-02-15T19:09:54.666Z,14.20
2023-02-15T19:12:21.809Z,13.87
2023-02-15T19:14:51.114Z,15.03
2023-02-15T19:17:20.592Z,11.83
2023-02-15T19:19:48.118Z,13.93
2023-02-15T19:22:21.750Z,11.07
2023-02-15T19:24:48.973Z,15.37
2023-02-15T19:27:31.693Z,14.73
2023-02-15T19:30:00.048Z,12.70
2023-02-15T19:32:27.775Z,12.90
2023-02-15T19:34:54.812Z,16.33
2023-02-15T19:37:42.564Z,15.97
2023-02-15T19:40:24.313Z,13.00
2023-02-15T19:42:51.476Z,14.60
2023-02-15T19:45:21.423Z,11.00
2023-02-15T19:47:48.674Z,14.80
2023-02-15T19:50:21.920Z,13.33
2023-02-15T19:52:49.227Z,15.70
2023-02-15T19:55:27.950Z,13.80
2023-02-15T19:57:56.890Z,16.83
2023-02-15T20:00:29.145Z,14.40
2023-02-15T20:02:56.590Z,14.27
2023-02-15T20:05:23.770Z,13.23
2023-02-15T20:07:52.250Z,14.30
2023-02-15T20:10:19.378Z,12.43
2023-02-15T20:12:47.554Z,13.03
2023-02-15T20:15:22.287Z,13.43
2023-02-15T20:17:50.212Z,13.40
2023-02-15T20:20:18.612Z,14.52
2023-02-15T20:22:47.952Z,12.10
2023-02-15T20:25:25.678Z,12.37
2023-02-15T20:27:52.773Z,11.90
2023-02-15T20:30:28.668Z,13.90
2023-02-15T20:32:55.972Z,12.70
2023-02-15T20:35:25.467Z,12.93
2023-02-15T20:37:54.352Z,14.87
2023-02-15T20:40:21.498Z,14.50
2023-02-15T20:42:48.660Z,14.30
2023-02-15T20:45:23.645Z,11.87
2023-02-15T20:47:51.558Z,13.00
2023-02-15T20:50:21.852Z,13.33
2023-02-15T20:52:50.359Z,12.77
2023-02-15T20:55:19.800Z,12.53
2023-02-15T20:57:46.960Z,12.97
2023-02-15T21:00:19.487Z,15.10
2023-02-15T21:02:48.643Z,14.00
2023-02-15T21:05:21.543Z,10.80
2023-02-15T21:07:50.345Z,12.37
2023-02-15T21:10:18.957Z,14.20
2023-02-15T21:12:46.511Z,11.87
2023-02-15T21:15:30.939Z,12.43
2023-02-15T21:17:59.571Z,14.90
2023-02-15T21:20:28.199Z,11.67
2023-02-15T21:22:56.056Z,11.10
2023-02-15T21:25:30.043Z,11.37
2023-02-15T21:27:57.181Z,11.20
2023-02-15T21:30:25.028Z,10.37
2023-02-15T21:32:52.102Z,15.00
2023-02-15T21:35:20.228Z,11.93
2023-02-15T21:37:49.811Z,10.37
2023-02-15T21:40:26.966Z,19.43
2023-02-15T21:43:12.957Z,13.80
2023-02-15T21:45:58.417Z,12.00
2023-02-15T21:48:25.665Z,12.03
2023-02-15T21:51:25.427Z,10.23
2023-02-15T21:53:52.561Z,11.43
2023-02-15T21:56:21.639Z,11.17
2023-02-15T21:58:49.119Z,13.40
2023-02-15T22:01:23.142Z,12.50
2023-02-15T22:03:51.222Z,14.13
2023-02-15T22:06:18.456Z,14.30
2023-02-15T22:08:45.650Z,12.20
2023-02-15T22:11:15.120Z,10.70
2023-02-15T22:13:43.521Z,10.33
2023-02-15T22:16:16.786Z,11.83
2023-02-15T22:18:43.930Z,13.40
2023-02-15T22:21:11.173Z,15.23
2023-02-15T22:23:38.651Z,18.50
2023-02-15T22:26:11.699Z,13.03
2023-02-15T22:28:39.891Z,12.40
2023-02-15T22:31:12.677Z,10.43
2023-02-15T22:33:39.871Z,9.97
2023-02-15T22:36:07.118Z,10.63
2023-02-15T22:38:34.218Z,11.27
2023-02-15T22:41:04.011Z,8.10
2023-02-15T22:43:38.832Z,10.37
2023-02-15T22:46:08.241Z,12.37
2023-02-15T22:48:35.606Z,11.03
2023-02-15T22:51:03.227Z,12.77
2023-02-15T22:53:30.531Z,10.47
2023-02-15T22:56:07.117Z,10.70
2023-02-15T22:58:34.774Z,12.40
2023-02-15T23:01:02.506Z,8.37
2023-02-15T23:03:31.270Z,9.67
2023-02-15T23:05:57.865Z,12.03
2023-02-15T23:08:24.932Z,14.17
2023-02-15T23:10:56.512Z,10.03
2023-02-15T23:13:26.855Z,12.53
2023-02-15T23:15:56.948Z,10.80
2023-02-15T23:18:23.954Z,9.57
2023-02-15T23:21:00.317Z,12.63
2023-02-15T23:23:39.242Z,11.47
2023-02-15T23:26:15.942Z,10.07
2023-02-15T23:28:43.072Z,10.07
2023-02-15T23:31:24.693Z,10.63
2023-02-15T23:33:52.752Z,8.60
2023-02-15T23:36:28.487Z,9.03
2023-02-15T23:38:57.264Z,10.13
2023-02-15T23:41:30.048Z,8.90
2023-02-15T23:43:59.552Z,11.63
2023-02-15T23:46:56.436Z,11.00
2023-02-15T23:49:23.661Z,10.47
2023-02-15T23:51:55.433Z,11.40
2023-02-15T23:54:24.567Z,7.93
2023-02-15T23:57:00.741Z,9.33
2023-02-15T23:59:30.123Z,11.97
